KHSP/HSP METAR and TAF weather

Enter ICAO airport designator
Station Type Date Time Source
KHSP METAR 2020/02/22 06:35 UTC NOAA

KHSP 220635Z AUTO 27015KT 10SM CLR M07/M17 A3026 RMK AO2 T10731166


Station Type Date Time Source
KHSP Decoded METAR 2020/02/22 06:35 UTC NOAA

Hot Springs / Ingalls, VA, United States (KHSP) 37-57N 079-50W
Feb 22, 2020 - 01:35 AM EST / 2020.02.22 0635 UTC
Wind: from the W (270 degrees) at 17 MPH (15 KT):0
Visibility: 10 mile(s):0
Sky conditions: clear
Temperature: 18.9 F (-7.3 C)
Windchill: 3 F (-16 C):1
Dew Point: 2.1 F (-16.6 C)
Relative Humidity: 47%
Pressure (altimeter): 30.26 in. Hg (1024 hPa)
ob: KHSP 220635Z AUTO 27015KT 10SM CLR M07/M17 A3026 RMK AO2 T10731166
cycle: 6

Station Type Date Time Source
KHSP TAF UTC NOAA

Error!

Example: see airport list